Time;durP1;ratioP1;P1;durP2;ratioP2;P2;SDS_P1;SDS_P2;PMS_P1;PMS_P2;Temp;Humidity;BMP_temperature;BMP_pressure;BME280_temperature;BME280_humidity;BME280_pressure;Samples;Min_cycle;Max_cycle;Signal;HPM_P1;HPM_P2
2023/05/06 00:01:53;;;;;;;14.03;12.73;;;;;;;10.75;100.00;101444.91;5309107;28;20035;-67
2023/05/06 00:04:25;;;;;;;15.20;11.90;;;;;;;10.73;100.00;101441.41;5327480;28;20070;-66
2023/05/06 00:06:57;;;;;;;15.63;13.88;;;;;;;10.68;100.00;101440.56;5327090;28;20028;-67
2023/05/06 00:09:28;;;;;;;15.13;12.73;;;;;;;10.65;100.00;101437.97;5327312;27;20072;-66
2023/05/06 00:11:59;;;;;;;14.13;12.63;;;;;;;10.61;100.00;101443.19;5326615;28;20035;-67
2023/05/06 00:14:31;;;;;;;16.60;12.47;;;;;;;10.66;100.00;101441.44;5327489;28;20118;-67
2023/05/06 00:17:02;;;;;;;13.80;12.30;;;;;;;10.64;100.00;101445.78;5326830;28;20046;-67
2023/05/06 00:19:33;;;;;;;14.47;13.03;;;;;;;10.56;100.00;101444.09;5327115;28;20133;-68
2023/05/06 00:22:05;;;;;;;16.00;13.47;;;;;;;10.55;100.00;101438.88;5325147;28;20611;-67
2023/05/06 00:24:36;;;;;;;14.87;13.40;;;;;;;10.46;100.00;101428.47;5360111;27;20031;-66
2023/05/06 00:27:08;;;;;;;16.70;13.93;;;;;;;10.47;100.00;101432.81;5325740;28;20079;-68
2023/05/06 00:29:39;;;;;;;14.87;13.33;;;;;;;10.45;100.00;101438.03;5326774;28;20053;-67
2023/05/06 00:32:10;;;;;;;15.40;13.87;;;;;;;10.36;100.00;101431.06;5326543;28;20035;-67
2023/05/06 00:34:42;;;;;;;17.13;14.70;;;;;;;10.33;100.00;101438.03;5326789;28;20077;-67
2023/05/06 00:37:13;;;;;;;15.33;13.87;;;;;;;10.29;100.00;101431.94;5326415;28;20032;-67
2023/05/06 00:39:44;;;;;;;16.00;14.30;;;;;;;10.29;100.00;101436.25;5326398;28;20043;-68
2023/05/06 00:42:16;;;;;;;15.50;13.90;;;;;;;10.30;100.00;101438.84;5326580;28;20093;-67
2023/05/06 00:44:50;;;;;;;19.90;15.77;;;;;;;10.20;100.00;101435.41;5326252;28;20032;-67
2023/05/06 00:47:22;;;;;;;16.30;14.60;;;;;;;10.20;100.00;101432.78;5326311;28;20027;-67
2023/05/06 00:49:53;;;;;;;17.70;15.87;;;;;;;10.20;100.00;101427.59;5326493;28;20127;-66
2023/05/06 00:52:25;;;;;;;18.43;15.77;;;;;;;10.17;100.00;101432.78;5325816;28;20034;-66
2023/05/06 00:54:56;;;;;;;16.47;14.80;;;;;;;10.19;100.00;101435.41;5325212;28;20062;-66
2023/05/06 00:57:28;;;;;;;19.47;15.43;;;;;;;10.13;100.00;101428.47;5326393;28;20038;-66
2023/05/06 00:59:59;;;;;;;20.57;15.97;;;;;;;10.08;100.00;101425.00;5326754;28;20039;-66
2023/05/06 01:02:30;;;;;;;19.63;16.40;;;;;;;10.10;100.00;101420.66;5324866;28;20047;-67
2023/05/06 01:05:02;;;;;;;18.67;15.33;;;;;;;9.99;100.00;101415.44;5326274;28;20030;-66
2023/05/06 01:08:02;;;;;;;18.60;16.60;;;;;;;10.04;100.00;101418.06;5324860;28;20031;-66
2023/05/06 01:10:51;;;;;;;17.70;15.32;;;;;;;9.91;100.00;101406.75;5325905;28;20020;-67
2023/05/06 01:13:25;;;;;;;16.88;15.05;;;;;;;9.93;100.00;101418.03;5326112;28;20019;-66
2023/05/06 01:16:00;;;;;;;19.58;15.13;;;;;;;9.85;100.00;101412.84;5326006;28;20058;-67
2023/05/06 01:18:32;;;;;;;18.30;14.65;;;;;;;9.81;100.00;101421.53;5325949;28;20039;-67
2023/05/06 01:21:04;;;;;;;16.80;15.17;;;;;;;9.76;100.00;101425.00;5324796;28;20043;-65
2023/05/06 01:23:54;;;;;;;17.25;15.15;;;;;;;9.80;100.00;101418.91;5324780;28;20289;-67
2023/05/06 01:26:26;;;;;;;17.40;14.60;;;;;;;9.80;100.00;101418.91;5325913;28;20028;-67
2023/05/06 01:28:57;;;;;;;18.13;16.02;;;;;;;9.74;100.00;101406.78;5325767;28;20390;-67
2023/05/06 01:31:34;;;;;;;17.40;15.33;;;;;;;9.73;100.00;101405.03;5324552;28;20035;-66
2023/05/06 01:34:26;;;;;;;17.90;15.23;;;;;;;9.76;100.00;101407.63;5325809;28;20036;-66
2023/05/06 01:37:16;;;;;;;17.42;15.43;;;;;;;9.72;100.00;101405.03;5325949;28;20037;-66
2023/05/06 01:39:48;;;;;;;16.63;14.82;;;;;;;9.75;100.00;101411.09;5324141;28;20036;-67
2023/05/06 01:42:23;;;;;;;16.70;15.00;;;;;;;9.77;100.00;101409.38;5325554;28;20051;-66
2023/05/06 01:44:56;;;;;;;17.05;15.35;;;;;;;9.73;100.00;101407.63;5325428;28;20032;-66
2023/05/06 01:47:27;;;;;;;16.98;15.27;;;;;;;9.67;100.00;101416.28;5325477;28;20031;-68
2023/05/06 01:50:00;;;;;;;17.20;15.50;;;;;;;9.70;100.00;101412.84;5324179;28;20035;-68
2023/05/06 01:52:32;;;;;;;17.73;14.10;;;;;;;9.68;100.00;101423.25;5325077;28;20370;-67
2023/05/06 01:55:03;;;;;;;16.67;14.97;;;;;;;9.64;100.00;101431.03;5325086;28;20042;-67
2023/05/06 01:57:35;;;;;;;17.13;15.43;;;;;;;9.60;100.00;101424.97;5324154;28;20048;-67
2023/05/06 02:00:08;;;;;;;17.57;15.07;;;;;;;9.58;100.00;101433.63;5325283;28;20360;-66
2023/05/06 02:02:40;;;;;;;18.60;14.93;;;;;;;9.55;100.00;101433.66;5325286;28;20035;-67
2023/05/06 02:05:11;;;;;;;16.43;14.57;;;;;;;9.52;100.00;101428.44;5325028;28;20028;-67
2023/05/06 02:07:43;;;;;;;17.80;15.80;;;;;;;9.47;100.00;101426.69;5325585;28;20039;-68
2023/05/06 02:10:14;;;;;;;17.93;16.03;;;;;;;9.42;100.00;101430.16;5324921;28;20028;-66
2023/05/06 02:12:45;;;;;;;17.03;15.23;;;;;;;9.43;100.00;101430.13;5324874;28;20390;-67
2023/05/06 02:15:17;;;;;;;20.40;17.17;;;;;;;9.36;100.00;101431.00;5325173;28;20054;-66
2023/05/06 02:17:48;;;;;;;19.77;15.97;;;;;;;9.38;100.00;101436.22;5323637;28;20024;-66
2023/05/06 02:20:20;;;;;;;17.40;15.63;;;;;;;9.30;100.00;101437.03;5324846;28;20031;-67
2023/05/06 02:22:51;;;;;;;18.53;14.70;;;;;;;9.33;100.00;101440.53;5324092;28;20051;-67
2023/05/06 02:25:22;;;;;;;17.03;15.33;;;;;;;9.27;100.00;101441.38;5325138;28;20074;-67
2023/05/06 02:27:54;;;;;;;16.80;14.63;;;;;;;9.24;100.00;101438.75;5324788;28;20027;-67
2023/05/06 02:30:25;;;;;;;17.43;15.07;;;;;;;9.24;100.00;101446.56;5325170;28;20031;-68
2023/05/06 02:32:57;;;;;;;17.13;14.83;;;;;;;9.28;100.00;101443.13;5324876;28;20077;-67
2023/05/06 02:35:28;;;;;;;17.93;16.03;;;;;;;9.28;100.00;101443.97;5325154;28;20037;-67
2023/05/06 02:38:00;;;;;;;18.23;16.00;;;;;;;9.28;100.00;101440.53;5329368;28;20082;-67
2023/05/06 02:40:31;;;;;;;19.30;15.68;;;;;;;9.22;100.00;101440.50;5328959;28;20035;-67
2023/05/06 02:43:03;;;;;;;17.33;15.00;;;;;;;9.16;100.00;101438.75;5328940;28;20024;-66
2023/05/06 02:45:34;;;;;;;16.20;14.60;;;;;;;9.11;100.00;101433.53;5328967;28;20032;-67
2023/05/06 02:48:05;;;;;;;16.37;14.67;;;;;;;9.12;100.00;101440.44;5328831;28;20489;-66
2023/05/06 02:50:37;;;;;;;18.00;15.13;;;;;;;9.04;100.00;101433.50;5328502;28;20538;-67
2023/05/06 02:53:09;;;;;;;16.50;14.80;;;;;;;8.97;100.00;101427.41;5309743;28;20139;-66
2023/05/06 02:55:40;;;;;;;16.70;14.98;;;;;;;8.97;100.00;101432.59;5328790;28;20490;-67
2023/05/06 02:58:12;;;;;;;16.57;14.97;;;;;;;8.98;100.00;101429.13;5328467;28;20023;-67
2023/05/06 03:00:43;;;;;;;17.27;14.20;;;;;;;8.93;100.00;101423.94;5330211;28;20035;-67
2023/05/06 03:03:16;;;;;;;17.10;15.30;;;;;;;8.94;100.00;101430.00;5327856;28;20116;-65
2023/05/06 03:05:47;;;;;;;16.55;14.82;;;;;;;8.92;100.00;101434.31;5328931;28;20027;-67
2023/05/06 03:08:19;;;;;;;15.97;13.63;;;;;;;8.91;100.00;101432.56;5328656;28;20028;-66
2023/05/06 03:10:50;;;;;;;17.27;15.37;;;;;;;8.92;100.00;101429.13;5327295;28;20032;-68
2023/05/06 03:13:21;;;;;;;17.97;14.97;;;;;;;8.83;100.00;101426.47;5328437;28;20031;-66
2023/05/06 03:15:53;;;;;;;15.53;13.87;;;;;;;8.88;100.00;101428.22;5328259;28;20470;-67
2023/05/06 03:18:24;;;;;;;18.90;14.80;;;;;;;8.89;100.00;101429.97;5328213;27;20036;-67
2023/05/06 03:20:56;;;;;;;16.37;14.50;;;;;;;8.89;100.00;101432.56;5328300;28;20027;-67
2023/05/06 03:23:27;;;;;;;15.43;13.63;;;;;;;8.79;100.00;101422.09;5327639;28;20047;-67
2023/05/06 03:25:59;;;;;;;18.63;16.00;;;;;;;8.84;100.00;101423.88;5328181;28;20111;-67
2023/05/06 03:28:30;;;;;;;17.10;14.40;;;;;;;8.80;100.00;101424.72;5327107;28;20036;-66
2023/05/06 03:31:01;;;;;;;15.47;13.87;;;;;;;8.78;100.00;101423.00;5327915;28;20059;-67
2023/05/06 03:33:33;;;;;;;20.47;13.87;;;;;;;8.76;100.00;101421.25;5327990;28;20034;-67
2023/05/06 03:36:04;;;;;;;18.60;15.47;;;;;;;8.81;100.00;101421.25;5326695;28;20031;-67
2023/05/06 03:38:36;;;;;;;15.83;13.83;;;;;;;8.78;100.00;101415.19;5326649;28;20043;-67
2023/05/06 03:41:07;;;;;;;16.33;13.77;;;;;;;8.79;100.00;101412.59;5309616;28;20063;-67
2023/05/06 03:43:39;;;;;;;15.93;13.33;;;;;;;8.75;100.00;101416.91;5360637;27;20041;-67
2023/05/06 03:46:10;;;;;;;17.83;14.80;;;;;;;8.75;100.00;101411.69;5327603;28;20059;-67
2023/05/06 03:48:42;;;;;;;15.07;13.57;;;;;;;8.71;100.00;101411.66;5325775;28;20412;-66
2023/05/06 03:51:13;;;;;;;15.10;13.33;;;;;;;8.72;100.00;101409.06;5327485;28;20028;-66
2023/05/06 03:53:45;;;;;;;14.37;12.87;;;;;;;8.63;100.00;101427.25;5326801;28;20043;-67
2023/05/06 03:56:17;;;;;;;14.80;13.23;;;;;;;8.64;100.00;101428.97;5327375;28;20091;-67
2023/05/06 03:58:48;;;;;;;13.60;12.20;;;;;;;8.55;100.00;101421.13;5325948;28;20031;-66
2023/05/06 04:01:20;;;;;;;13.73;12.00;;;;;;;8.60;100.00;101416.84;5326960;28;20035;-66
2023/05/06 04:03:53;;;;;;;15.98;11.38;;;;;;;8.59;100.00;101417.69;5308960;28;20032;-67
2023/05/06 04:06:25;;;;;;;;;;;;;;;8.55;100.00;101431.53;5326114;28;20057;-66
2023/05/06 04:08:57;;;;;;;15.13;12.80;;;;;;;8.64;100.00;101428.09;5325901;28;20326;-66
2023/05/06 04:11:28;;;;;;;12.57;11.27;;;;;;;8.67;100.00;101431.59;5326845;28;20300;-67
2023/05/06 04:13:59;;;;;;;13.90;12.00;;;;;;;8.69;100.00;101435.06;5327154;28;20027;-66
2023/05/06 04:16:31;;;;;;;13.50;11.83;;;;;;;8.66;100.00;101435.06;5326746;28;20042;-66
2023/05/06 04:19:02;;;;;;;21.27;12.50;;;;;;;8.72;100.00;101435.06;5326831;28;20101;-66
2023/05/06 04:21:33;;;;;;;14.47;11.90;;;;;;;8.75;100.00;101435.09;5326637;28;20034;-67
2023/05/06 04:24:05;;;;;;;15.77;11.90;;;;;;;8.78;100.00;101431.66;5324574;28;20055;-67
2023/05/06 04:26:37;;;;;;;14.47;12.07;;;;;;;8.86;100.00;101432.56;5325348;28;20028;-68
2023/05/06 04:29:08;;;;;;;14.43;12.70;;;;;;;8.86;100.00;101431.69;5326462;28;20035;-67
2023/05/06 04:31:39;;;;;;;14.23;12.50;;;;;;;8.93;100.00;101444.72;5326581;28;20028;-67
2023/05/06 04:34:11;;;;;;;20.60;12.70;;;;;;;8.94;100.00;101448.19;5326416;28;20034;-66
2023/05/06 04:36:42;;;;;;;13.63;12.20;;;;;;;8.93;100.00;101443.84;5326521;28;20028;-67
2023/05/06 04:39:15;;;;;;;14.93;11.63;;;;;;;8.95;100.00;101439.50;5326439;28;20035;-67
2023/05/06 04:41:47;;;;;;;18.13;13.95;;;;;;;9.03;100.00;101443.03;5326277;28;20032;-67
2023/05/06 04:44:19;;;;;;;21.33;16.65;;;;;;;9.03;100.00;101442.16;5326126;28;20033;-66
2023/05/06 04:46:50;;;;;;;26.30;17.93;;;;;;;9.11;100.00;101448.25;5342173;27;20042;-66
2023/05/06 04:49:22;;;;;;;26.00;17.30;;;;;;;9.13;100.00;101446.53;5326254;28;20031;-66
2023/05/06 04:51:53;;;;;;;24.30;16.47;;;;;;;9.20;100.00;101450.03;5325879;28;20043;-68
2023/05/06 04:54:24;;;;;;;20.50;15.40;;;;;;;9.24;100.00;101443.97;5325996;28;20023;-66
2023/05/06 04:56:56;;;;;;;20.23;16.53;;;;;;;9.28;100.00;101448.31;5324635;28;20031;-67
2023/05/06 04:59:27;;;;;;;19.87;14.90;;;;;;;9.34;100.00;101453.56;5325872;28;20042;-67
2023/05/06 05:01:58;;;;;;;16.20;12.47;;;;;;;9.41;100.00;101462.25;5325906;28;20032;-66
2023/05/06 05:04:30;;;;;;;16.80;12.97;;;;;;;9.44;100.00;101447.50;5325817;28;20459;-67
2023/05/06 05:07:01;;;;;;;17.67;12.53;;;;;;;9.55;100.00;101459.69;5325720;28;20081;-66
2023/05/06 05:09:34;;;;;;;18.20;13.30;;;;;;;9.62;100.00;101467.47;5325720;28;20028;-67
2023/05/06 05:12:05;;;;;;;18.73;13.13;;;;;;;9.68;100.00;101462.28;5325880;28;20028;-66
2023/05/06 05:14:36;;;;;;;13.67;11.33;;;;;;;9.77;100.00;101463.19;5324384;28;20482;-66
2023/05/06 05:17:08;;;;;;;14.63;11.40;;;;;;;9.88;100.00;101476.22;5324225;28;20130;-67
2023/05/06 05:19:39;;;;;;;14.80;11.67;;;;;;;9.93;100.00;101471.88;5325345;28;20437;-66
2023/05/06 05:22:11;;;;;;;16.07;11.10;;;;;;;9.97;100.00;101474.50;5325322;28;20110;-68
2023/05/06 05:24:42;;;;;;;15.27;10.93;;;;;;;10.03;100.00;101476.25;5324977;28;20135;-67
2023/05/06 05:27:14;;;;;;;13.93;11.20;;;;;;;10.03;100.00;101474.50;5325533;28;20027;-66
2023/05/06 05:29:45;;;;;;;13.47;10.20;;;;;;;10.06;100.00;101475.34;5325254;28;20104;-66
2023/05/06 05:32:16;;;;;;;17.23;10.70;;;;;;;10.13;100.00;101479.72;5325458;28;20130;-66
2023/05/06 05:34:48;;;;;;;13.70;11.70;;;;;;;10.21;100.00;101483.19;5324887;28;20035;-66
2023/05/06 05:37:19;;;;;;;15.67;11.53;;;;;;;10.27;100.00;101487.50;5323937;28;20386;-66
2023/05/06 05:39:51;;;;;;;16.10;10.17;;;;;;;10.34;100.00;101494.50;5325602;28;20066;-66
2023/05/06 05:42:22;;;;;;;15.70;10.80;;;;;;;10.44;100.00;101488.41;5325270;28;20073;-66
2023/05/06 05:44:53;;;;;;;14.40;10.60;;;;;;;10.53;100.00;101495.38;5325046;28;20217;-67
2023/05/06 05:47:25;;;;;;;13.47;9.93;;;;;;;10.64;100.00;101503.16;5325444;28;20412;-66
2023/05/06 05:49:56;;;;;;;13.90;9.03;;;;;;;10.71;100.00;101499.69;5324089;28;20023;-66
2023/05/06 05:52:27;;;;;;;15.97;8.70;;;;;;;10.78;100.00;101501.41;5323307;28;20462;-67
2023/05/06 05:54:59;;;;;;;13.90;9.20;;;;;;;10.87;100.00;101503.97;5318900;28;20110;-67
2023/05/06 05:57:30;;;;;;;15.60;9.67;;;;;;;10.99;100.00;101497.84;5323919;28;20084;-66
2023/05/06 06:00:04;;;;;;;14.30;9.33;;;;;;;11.10;100.00;101497.81;5324701;28;20039;-66
2023/05/06 06:02:36;;;;;;;14.93;9.30;;;;;;;11.12;100.00;101498.69;5304538;28;20729;-66
2023/05/06 06:05:07;;;;;;;13.77;9.40;;;;;;;11.26;100.00;101498.66;5323432;28;20111;-67
2023/05/06 06:07:38;;;;;;;16.53;9.07;;;;;;;11.25;100.00;101500.41;5322697;28;20096;-68
2023/05/06 06:10:12;;;;;;;14.23;9.33;;;;;;;11.31;100.00;101497.72;5324136;28;20085;-67
2023/05/06 06:12:43;;;;;;;11.05;8.65;;;;;;;11.40;100.00;101498.56;5327797;28;20031;-67
2023/05/06 06:15:15;;;;;;;11.13;8.27;;;;;;;11.45;100.00;101496.81;5326790;28;20127;-66
2023/05/06 06:17:46;;;;;;;12.90;8.87;;;;;;;11.52;100.00;101488.06;5327938;28;20031;-66
2023/05/06 06:20:18;;;;;;;12.63;8.17;;;;;;;11.57;100.00;101494.13;5328701;28;20055;-66
2023/05/06 06:22:49;;;;;;;10.77;7.90;;;;;;;11.62;100.00;101489.78;5326035;28;20131;-66
2023/05/06 06:25:20;;;;;;;11.67;7.53;;;;;;;11.65;100.00;101500.16;5328339;28;20028;-66
2023/05/06 06:27:53;;;;;;;12.70;8.33;;;;;;;11.73;100.00;101497.50;5326256;27;20039;-66
2023/05/06 06:30:24;;;;;;;;;;;;;;;11.82;100.00;101502.69;5320146;27;20031;-66
2023/05/06 06:32:57;;;;;;;10.50;7.22;;;;;;;11.91;100.00;101508.72;5311014;28;19919;-66
2023/05/06 06:35:29;;;;;;;11.35;6.93;;;;;;;11.92;100.00;101503.53;5326726;28;20039;-66
2023/05/06 06:38:01;;;;;;;11.97;7.47;;;;;;;12.02;100.00;101510.41;5326503;28;20381;-65
2023/05/06 06:40:32;;;;;;;;;;;;;;;12.10;100.00;101505.13;5328276;28;20023;-66
2023/05/06 06:43:04;;;;;;;11.30;7.65;;;;;;;12.15;100.00;101499.88;5326210;28;20010;-66
2023/05/06 06:45:35;;;;;;;10.70;7.63;;;;;;;12.25;100.00;101508.50;5327551;27;20115;-65
2023/05/06 06:48:06;;;;;;;10.07;7.00;;;;;;;12.40;100.00;101514.47;5327296;28;20074;-68
2023/05/06 06:50:38;;;;;;;11.50;6.30;;;;;;;12.37;100.00;101513.66;5325817;27;20046;-67
2023/05/06 06:53:09;;;;;;;11.33;6.43;;;;;;;12.46;100.00;101517.91;5326219;28;20422;-66
2023/05/06 06:55:44;;;;;;;10.00;6.40;;;;;;;12.55;100.00;101510.00;5327565;28;20020;-66
2023/05/06 06:58:15;;;;;;;10.30;6.97;;;;;;;12.67;100.00;101515.13;5326301;28;20039;-67
2023/05/06 07:00:47;;;;;;;12.10;7.27;;;;;;;12.83;100.00;101517.56;5327813;28;20501;-65
2023/05/06 07:03:18;;;;;;;10.90;6.83;;;;;;;12.97;100.00;101514.81;5324127;28;20051;-64
2023/05/06 07:05:50;;;;;;;9.67;6.50;;;;;;;13.06;100.00;101520.81;5327592;28;20128;-66
2023/05/06 07:08:21;;;;;;;10.23;6.70;;;;;;;13.24;100.00;101521.47;5328407;28;20501;-65
2023/05/06 07:10:52;;;;;;;10.57;6.93;;;;;;;13.38;100.00;101516.09;5328164;28;20028;-67
2023/05/06 07:13:24;;;;;;;11.97;7.57;;;;;;;13.37;100.00;101517.84;5328153;28;20023;-68
2023/05/06 07:15:55;;;;;;;12.77;8.60;;;;;;;13.57;100.00;101522.84;5328230;28;20043;-66
2023/05/06 07:18:27;;;;;;;11.30;7.27;;;;;;;13.64;100.00;101514.00;5328177;28;20027;-66
2023/05/06 07:20:58;;;;;;;12.67;8.30;;;;;;;13.88;100.00;101525.03;5309585;28;20032;-65
2023/05/06 07:23:29;;;;;;;13.23;8.17;;;;;;;13.90;100.00;101525.00;5326400;28;20132;-65
2023/05/06 07:26:01;;;;;;;14.03;8.17;;;;;;;13.90;99.76;101525.00;5327710;28;20033;-65
2023/05/06 07:28:32;;;;;;;13.73;10.23;;;;;;;14.04;99.94;101523.91;5326602;28;20047;-67
2023/05/06 07:31:03;;;;;;;18.87;11.97;;;;;;;14.18;99.89;101528.94;5327442;28;20032;-65
2023/05/06 07:33:35;;;;;;;16.93;11.27;;;;;;;14.11;98.58;101527.28;5327800;28;20134;-65
2023/05/06 07:36:07;;;;;;;16.73;11.07;;;;;;;14.08;98.42;101527.34;5309259;28;20030;-65
2023/05/06 07:38:38;;;;;;;19.52;14.27;;;;;;;14.17;98.10;101524.56;5326470;28;20085;-65
2023/05/06 07:41:09;;;;;;;18.83;13.43;;;;;;;14.26;97.53;101526.16;5326407;28;20114;-65
2023/05/06 07:43:41;;;;;;;23.23;13.60;;;;;;;14.59;99.33;101527.41;5327418;28;20063;-66
2023/05/06 07:46:12;;;;;;;18.60;13.13;;;;;;;14.71;96.46;101528.94;5360543;27;20059;-66
2023/05/06 07:48:43;;;;;;;22.00;12.47;;;;;;;14.92;95.87;101535.56;5327419;28;20386;-66
2023/05/06 07:51:15;;;;;;;20.60;12.23;;;;;;;15.01;93.21;101537.13;5327423;28;20098;-66
2023/05/06 07:53:46;;;;;;;17.97;11.93;;;;;;;15.13;93.47;101539.53;5325529;28;20023;-66
2023/05/06 07:56:18;;;;;;;18.30;11.27;;;;;;;15.35;94.67;101531.22;5327289;28;20513;-65
2023/05/06 07:58:49;;;;;;;14.83;9.90;;;;;;;15.36;91.75;101539.94;5326886;28;20050;-66
2023/05/06 08:01:21;;;;;;;15.83;9.50;;;;;;;15.39;92.69;101532.88;5326922;28;20027;-66
2023/05/06 08:03:52;;;;;;;13.00;9.57;;;;;;;15.64;92.26;101541.09;5327051;28;20043;-66
2023/05/06 08:06:24;;;;;;;20.43;14.27;;;;;;;15.80;89.78;101535.53;5325485;28;20035;-67
2023/05/06 08:08:55;;;;;;;19.57;13.73;;;;;;;15.96;88.73;101536.91;5325431;28;20031;-67
2023/05/06 08:11:26;;;;;;;21.67;14.77;;;;;;;16.11;86.35;101542.72;5342975;27;20130;-66
2023/05/06 08:13:58;;;;;;;17.77;11.57;;;;;;;16.12;86.39;101549.72;5360468;27;20363;-66
2023/05/06 08:16:29;;;;;;;18.17;12.77;;;;;;;16.14;85.02;101542.66;5326842;28;20031;-66
2023/05/06 08:19:01;;;;;;;16.50;10.90;;;;;;;16.19;82.97;101554.75;5326750;28;20032;-67
2023/05/06 08:21:32;;;;;;;15.33;10.57;;;;;;;16.32;81.94;101534.28;5326858;28;20028;-66
2023/05/06 08:24:03;;;;;;;15.70;10.93;;;;;;;16.50;82.64;101530.34;5324767;28;20043;-66
2023/05/06 08:26:35;;;;;;;13.80;9.93;;;;;;;16.58;83.22;101535.41;5326489;28;20413;-66
2023/05/06 08:29:06;;;;;;;17.43;10.47;;;;;;;16.63;82.43;101533.53;5326623;28;20031;-67
2023/05/06 08:31:38;;;;;;;15.40;10.30;;;;;;;16.82;80.86;101536.50;5326226;28;20027;-67
2023/05/06 08:34:09;;;;;;;14.03;8.13;;;;;;;16.96;81.74;101525.66;5326036;28;20036;-67
2023/05/06 08:36:41;;;;;;;10.83;7.67;;;;;;;17.08;80.46;101525.31;5326568;28;20378;-67
2023/05/06 08:39:13;;;;;;;13.73;7.40;;;;;;;17.25;77.96;101539.78;5325473;28;20035;-67
2023/05/06 08:41:51;;;;;;;10.90;6.60;;;;;;;17.06;75.97;101526.25;5326537;28;20024;-67
2023/05/06 08:44:24;;;;;;;11.38;6.25;;;;;;;16.88;75.09;101535.53;5326322;27;20020;-67
2023/05/06 08:46:55;;;;;;;11.05;6.45;;;;;;;17.26;76.12;101530.97;5326118;28;20116;-67
2023/05/06 08:49:26;;;;;;;11.17;6.27;;;;;;;17.58;76.91;101526.50;5325015;28;20035;-66
2023/05/06 08:52:01;;;;;;;9.43;6.00;;;;;;;17.61;74.58;101529.06;5326401;28;20386;-66
2023/05/06 08:54:34;;;;;;;12.07;5.72;;;;;;;17.58;72.66;101526.50;5325851;28;20050;-67
2023/05/06 08:57:10;;;;;;;9.02;5.72;;;;;;;17.59;71.27;101522.97;5326139;28;20042;-67
2023/05/06 08:59:41;;;;;;;9.73;6.18;;;;;;;17.63;71.88;101519.34;5326108;28;20028;-66
2023/05/06 09:02:13;;;;;;;8.60;5.47;;;;;;;17.92;71.22;101522.84;5325863;28;20038;-66
2023/05/06 09:04:45;;;;;;;12.32;6.35;;;;;;;18.13;71.79;101518.66;5326034;28;20031;-66
2023/05/06 09:07:19;;;;;;;8.88;6.07;;;;;;;18.29;74.49;101511.97;5324908;28;20386;-67
2023/05/06 09:09:51;;;;;;;9.48;5.70;;;;;;;18.22;69.80;101511.34;5324634;28;20032;-66
2023/05/06 09:12:23;;;;;;;10.33;4.63;;;;;;;18.20;68.77;101521.06;5326040;28;20027;-67
2023/05/06 09:14:55;;;;;;;7.65;4.38;;;;;;;18.23;66.81;101507.75;5325886;28;20367;-67
2023/05/06 09:17:30;;;;;;;5.50;3.58;;;;;;;18.34;63.20;101520.59;5325923;28;20422;-66
2023/05/06 09:20:02;;;;;;;8.65;4.82;;;;;;;18.67;69.03;101507.13;5325718;28;20038;-66
2023/05/06 09:22:37;;;;;;;8.25;4.65;;;;;;;18.71;67.53;101507.94;5323823;28;20470;-66
2023/05/06 09:25:10;;;;;;;6.90;4.82;;;;;;;19.04;69.20;101512.94;5325545;28;20031;-67
2023/05/06 09:27:41;;;;;;;6.05;4.28;;;;;;;19.01;64.01;101511.25;5324266;28;20458;-66
2023/05/06 09:30:14;;;;;;;8.20;4.13;;;;;;;19.11;63.62;101519.69;5325364;28;20045;-67
2023/05/06 09:32:48;;;;;;;7.70;3.72;;;;;;;19.41;65.12;101522.97;5325345;28;20035;-66
2023/05/06 09:35:19;;;;;;;6.25;3.42;;;;;;;19.37;61.53;101512.56;5325706;28;20103;-67
2023/05/06 09:37:51;;;;;;;7.47;4.40;;;;;;;19.77;58.68;101513.69;5325434;28;20445;-67
2023/05/06 09:40:23;;;;;;;6.30;3.42;;;;;;;20.54;58.38;101502.59;5358511;27;20036;-67
2023/05/06 09:42:55;;;;;;;5.27;3.67;;;;;;;21.33;55.07;101505.25;5325587;28;20135;-67
2023/05/06 09:45:27;;;;;;;6.70;3.55;;;;;;;23.00;50.10;101508.53;5323356;28;20410;-67
2023/05/06 09:47:59;;;;;;;6.65;2.92;;;;;;;23.17;46.27;101505.00;5325198;28;20543;-66
2023/05/06 09:50:31;;;;;;;4.15;2.20;;;;;;;23.95;46.84;101504.25;5324214;28;20055;-66
2023/05/06 09:53:04;;;;;;;4.35;2.30;;;;;;;24.23;44.82;101495.50;5324954;28;20028;-66
2023/05/06 09:55:36;;;;;;;7.93;2.47;;;;;;;24.77;42.38;101496.78;5325104;28;20476;-66
2023/05/06 09:58:08;;;;;;;4.00;2.35;;;;;;;25.20;41.83;101492.28;5323924;28;20501;-67
2023/05/06 10:00:41;;;;;;;5.53;2.15;;;;;;;25.99;39.15;101484.56;5325370;28;20040;-68
2023/05/06 10:03:15;;;;;;;;;;;;;;;27.24;40.89;101495.53;5325968;28;20019;-67
2023/05/06 10:05:47;;;;;;;3.50;1.83;;;;;;;26.02;36.08;101484.38;5325028;27;19923;-68
2023/05/06 10:08:21;;;;;;;4.88;2.15;;;;;;;25.56;36.35;101485.53;5324169;28;20139;-67
2023/05/06 10:10:54;;;;;;;5.53;1.70;;;;;;;25.93;36.51;101490.28;5323901;28;20462;-67
2023/05/06 10:13:26;;;;;;;5.63;2.10;;;;;;;25.65;36.78;101478.75;5325512;28;20120;-67
2023/05/06 10:15:59;;;;;;;3.45;1.92;;;;;;;26.46;36.72;101479.63;5325164;28;20036;-66
2023/05/06 10:18:33;;;;;;;3.42;1.70;;;;;;;26.93;33.91;101475.44;5325260;28;20023;-66
2023/05/06 10:21:12;;;;;;;6.00;1.85;;;;;;;26.31;35.01;101471.69;5325217;28;20370;-67
2023/05/06 10:23:55;;;;;;;4.00;1.75;;;;;;;25.86;36.74;101476.50;5324586;28;20118;-68
2023/05/06 10:26:30;;;;;;;3.45;1.40;;;;;;;25.76;35.35;101468.22;5325279;28;20119;-67
2023/05/06 10:29:03;;;;;;;5.93;1.55;;;;;;;25.78;34.52;101473.47;5325054;28;20086;-67
2023/05/06 10:31:42;;;;;;;4.20;1.90;;;;;;;25.52;35.85;101470.69;5324711;28;20039;-67
2023/05/06 10:34:17;;;;;;;4.82;1.65;;;;;;;24.88;35.92;101470.28;5341206;28;20038;-67
2023/05/06 10:36:52;;;;;;;2.78;1.55;;;;;;;24.50;37.36;101466.31;5324986;28;20028;-67
2023/05/06 10:39:25;;;;;;;5.63;2.03;;;;;;;24.96;37.40;101468.00;5323856;28;20024;-66
2023/05/06 10:41:56;;;;;;;5.38;2.20;;;;;;;24.54;38.30;101457.19;5324617;28;20127;-67
2023/05/06 10:45:02;;;;;;;4.33;2.10;;;;;;;26.64;37.08;101451.63;5323500;28;20115;-67
2023/05/06 10:47:56;;;;;;;3.90;1.60;;;;;;;25.84;34.49;101460.56;5325080;28;20261;-67
2023/05/06 10:50:27;;;;;;;4.72;1.90;;;;;;;25.54;35.88;101451.91;5324573;28;20024;-66
2023/05/06 10:52:58;;;;;;;5.10;1.80;;;;;;;26.49;33.95;101456.19;5324559;28;20073;-67
2023/05/06 10:55:31;;;;;;;5.87;1.97;;;;;;;27.40;33.47;101448.91;5324743;28;20266;-66
2023/05/06 10:58:13;;;;;;;5.05;1.70;;;;;;;27.59;34.00;101451.94;5326855;28;20107;-67
2023/05/06 11:00:55;;;;;;;4.93;1.70;;;;;;;25.86;35.76;101441.75;5328341;28;20078;-65
2023/05/06 11:03:27;;;;;;;3.13;1.85;;;;;;;25.60;35.72;101448.81;5327129;28;20112;-67
2023/05/06 11:05:58;;;;;;;4.13;1.80;;;;;;;26.14;35.19;101440.78;5328203;28;20482;-66
2023/05/06 11:08:29;;;;;;;3.37;2.20;;;;;;;25.79;37.27;101438.66;5328238;28;20102;-67
2023/05/06 11:11:39;;;;;;;3.80;1.90;;;;;;;25.82;36.12;101443.78;5327890;28;20031;-67
2023/05/06 11:14:12;;;;;;;3.88;1.70;;;;;;;26.43;34.50;101440.59;5328067;28;20032;-66
2023/05/06 11:16:50;;;;;;;3.35;1.73;;;;;;;26.34;34.52;101436.75;5327844;28;20024;-66
2023/05/06 11:19:26;;;;;;;4.85;2.53;;;;;;;25.40;36.46;101436.78;5327933;28;20049;-66
2023/05/06 11:22:01;;;;;;;3.47;1.92;;;;;;;25.57;37.44;101430.38;5326750;28;20062;-68
2023/05/06 11:24:41;;;;;;;3.95;1.77;;;;;;;26.33;36.52;101436.84;5327198;28;20498;-67
2023/05/06 11:27:16;;;;;;;3.10;1.88;;;;;;;27.06;35.24;101437.97;5327873;28;20027;-68
2023/05/06 11:29:47;;;;;;;3.72;1.70;;;;;;;26.05;36.13;101433.41;5327329;28;20035;-66
2023/05/06 11:32:24;;;;;;;5.55;2.13;;;;;;;26.02;36.18;101433.63;5327791;28;20095;-66
2023/05/06 11:34:55;;;;;;;6.30;2.08;;;;;;;26.10;35.66;101428.59;5326542;28;20455;-66
2023/05/06 11:37:28;;;;;;;4.40;2.28;;;;;;;25.61;37.22;101430.03;5326501;28;20040;-67
2023/05/06 11:39:59;;;;;;;;;;;;;;;26.52;36.66;101431.09;5328182;28;20035;-66